Share

Shawville, PA (16873)

Clearfield-Lawrence (KFIG) Elev 1516 ft | 41.05 °N, 78.41 °W | Change Station

Current weather conditions updated 14 minutes ago

Clear
Clear
48 °F
Feels Like 48 °F
N
8
Wind Variable Wind from SSE
Gusts 17 mph
Sunrise 6:31 AM
Sunset 7:55 PM
Moon Waning Gibbous

Today is forecast to be Much Warmer than yesterday.

Pressure 30.55 in
Visibility 10.0 miles
Clouds Clear
Dew Point 21 °F
Humidity 34%
Rainfall 0.00 in
Snow Depth Not available.
UV 10 out of 16
Pollen 9.50 out of 12
Air Quality Not available.
Flu Activity Local Activity
METAR KFIG 171654Z AUTO 16007G15KT 10SM CLR 09/M06 A3051 RMK AO2 SLP343 T00891061

More Conditions Fewer Conditions

Pressure 30.55 in
Visibility 10.0 miles
Clouds Clear
Dew Point 21 °F
Humidity 34%
Rainfall 0.00 in
Snow Depth Not available.
UV 10 out of 16
Pollen 9.50 out of 12
Air Quality Not available.
Flu Activity Local Activity
METAR KFIG 171654Z AUTO 16007G15KT 10SM CLR 09/M06 A3051 RMK AO2 SLP343 T00891061

More Conditions Fewer Conditions

10-Day Forecast

Almanac

Astronomy

Apr. 17, 2014 Rise Set
Actual Time 6:31 AM EDT 7:55 PM EDT
Civil Twilight 6:02 AM EDT 8:24 PM EDT
Nautical Twilight 5:28 AM EDT 8:58 PM EDT
Astronomical Twilight 4:51 AM EDT 9:35 PM EDT
Moon 10:40 PM EDT 8:00 AM EDT
Length of Visible Light 14h 21m
Length of Day
13h 24m
Tomorrow will be 2m 35s longer.
Waning Gibbous, 93% of the Moon is Illuminated
Today
Waning Gibbous
Apr 22
Last Quarter
Apr 29
New
May 6
First Quarter
May 14
Full

Today's Extremes

State Highs State Lows

Community

  • New Day
    New Day
  • Lake Michigan Sunrise
    Lake Michigan Sunrise
  • sunset from izmir, narlıdere
    sunset from izmir, narlıdere
  • oregon cherry
    oregon cherry
  • Sunset over the Bay
    Sunset over the Bay

WunderPhotos

Upload Photos

1,702,073 photos uploaded!

Nearby

Snow Depth

Station Depth Elevation
No new snow has been reported.

Coastal Water Temperatures

Place Temperature
No Stations Reporting

Earthquake Activity

City Distance Mag. Time & Date
No recent earthquake activity has been reported nearby.
Minimum magnitude displayed is 2.5.

Nearby Weather Stations

Station Location Temp. Windchill Dew Point Humidity Wind Precip. Elev Updated Type
Holly Terrace, Falls Creek, PA 49.3 °F 45 °F 31 °F 49% SSE  at  11.0 mph 0.00 in / hr 1483 ft 1:08 PM EDT Rapid Fire

Show More Stations Show Fewer Stations

What do you think?

We're not finished. Please let us know what you like, what you don't like, and what you are still missing.